Jinjya Maru — JI3550 — position and weather

sailwx.info

Track history (hours):
 
Tides and Currents Weather Stations Pressure Air Temp Water Temp Dewpoint Dewpoint Depression Visibility Wind Speed Wind Dir Waves Ship Positions

Jinjya Maru

Last reported at 2018-May-21 03:27 UTC. Time now 2018-May-21 14:33 UTC.
Position N 34°33' E 135°21'.

Length 48 m.

Type: Tanker. MMSI: 431300336.

Date/timePositionNaut miles runAvg speedWind from/ knotsBaromVisibWave heightAir tempDewpointWater temp
2018-May-21 03:27N 34°33' E 135°21'510.4
2018-May-21 02:56N 34°34' E 135°15'410.0
2018-May-21 02:30N 34°35' E 135°09'510.5
2018-May-21 02:00N 34°36' E 135°03'9 9.5
2018-May-21 01:06N 34°34' E 134°53'110.7
2018-May-21 00:59N 34°34' E 134°51'610.4
2018-May-21 00:27N 34°32' E 134°45'610.4
2018-May-20 23:52N 34°30' E 134°38'410.5
2018-May-20 23:27N 34°28' E 134°33'3 0.1
2018-May-19 08:48N 34°28' E 134°30'9 8.6
2018-May-19 07:48N 34°31' E 134°39'15 7.8
2018-May-19 05:54N 34°37' E 134°56'5 7.3
2018-May-19 05:09N 34°37' E 135°03'2 7.1
2018-May-19 04:53N 34°37' E 135°05'4 9.4
2018-May-19 04:28N 34°37' E 135°10'5 9.8
2018-May-19 03:56N 34°37' E 135°16'4 9.4
2018-May-19 03:29N 34°36' E 135°21'4 1.4
2018-May-19 00:30N 34°34' E 135°26'1 0.2
2018-May-18 17:36N 34°35' E 135°25'0 0.0
2018-May-18 13:26N 34°35' E 135°25'14 9.4
2018-May-18 11:58N 34°27' E 135°12'612.1
2018-May-18 11:30N 34°22' E 135°08'612.6
2018-May-18 11:00N 34°17' E 135°04'911.3
2018-May-18 10:11N 34°09' E 134°58'2 9.7
2018-May-18 10:00N 34°08' E 134°57'  
2018-May-15 02:21N 34°04' E 132°25'5 9.5
2018-May-15 01:51N 34°07' E 132°21'3 9.4
2018-May-15 01:30N 34°10' E 132°18'3 1.7
2018-May-14 23:25N 34°12' E 132°15'1 2.0
2018-May-14 22:57N 34°11' E 132°14'0 0.0
2018-May-14 22:27N 34°11' E 132°14'0 0.0
2018-May-14 21:54N 34°11' E 132°14'0 0.0
2018-May-14 21:30N 34°11' E 132°14'0 0.0
2018-May-14 20:48N 34°11' E 132°14'0 0.0
2018-May-14 20:30N 34°11' E 132°14'0 0.0
2018-May-14 20:00N 34°11' E 132°14'0 0.0
2018-May-14 19:18N 34°11' E 132°14'0 0.0
2018-May-14 18:54N 34°11' E 132°14'0 0.0
2018-May-14 18:24N 34°11' E 132°14'0 0.0
2018-May-14 17:39N 34°11' E 132°14'0 0.0
2018-May-14 17:27N 34°11' E 132°14'0 0.0
2018-May-14 17:00N 34°11' E 132°14'0 0.0
2018-May-14 16:21N 34°11' E 132°14'0 0.0
2018-May-14 16:00N 34°11' E 132°14'0 0.0
2018-May-14 15:06N 34°11' E 132°14'0 0.0
2018-May-14 14:51N 34°11' E 132°14'0 0.0
2018-May-14 14:24N 34°11' E 132°14'0 0.0
2018-May-14 14:00N 34°11' E 132°14'0 0.0
2018-May-14 13:30N 34°11' E 132°14'0 0.0
2018-May-14 12:42N 34°11' E 132°14'0 0.0
2018-May-14 12:24N 34°11' E 132°14'0 0.0
2018-May-14 09:24N 34°11' E 132°14'0 0.0
2018-May-14 08:57N 34°11' E 132°14'0 0.0
2018-May-14 08:30N 34°11' E 132°14'1 1.7
2018-May-14 07:58N 34°12' E 132°15'28 4.5
2018-May-14 01:38N 33°55' E 132°42'2 9.7
2018-May-14 01:29N 33°56' E 132°43'90 4.9
2018-May-13 07:02N 34°27' E 134°26'3 9.5
2018-May-13 06:44N 34°29' E 134°29'3 9.4
2018-May-13 06:25N 34°30' E 134°33'4 9.2
2018-May-13 06:00N 34°31' E 134°37'5 9.2
2018-May-13 05:30N 34°32' E 134°42'5 8.9
2018-May-13 05:00N 34°34' E 134°47'4 8.3
2018-May-13 04:29N 34°35' E 134°52'4 7.2
2018-May-13 03:59N 34°37' E 134°56'3 6.9
2018-May-13 03:30N 34°38' E 134°60'3 5.8
2018-May-13 03:00N 34°37' E 135°03'5 9.2
2018-May-13 02:30N 34°37' E 135°09'510.0
2018-May-13 02:00N 34°37' E 135°15'5 9.8
2018-May-13 01:30N 34°37' E 135°21'4 8.3
2018-May-13 01:00N 34°35' E 135°25'0 0.7
2018-May-13 00:28N 34°34' E 135°26'0 0.0
2018-May-12 23:58N 34°34' E 135°26'0 0.0
2018-May-12 23:28N 34°34' E 135°26'0 0.0
2018-May-12 22:58N 34°34' E 135°26'1 1.1
2018-May-12 22:30N 34°35' E 135°25'0 0.6
2018-May-12 22:00N 34°35' E 135°25'0 0.0
2018-May-12 21:30N 34°35' E 135°25'0 0.0
2018-May-12 21:00N 34°35' E 135°25'0 0.1
2018-May-12 20:30N 34°35' E 135°25'0 0.0
2018-May-12 20:00N 34°35' E 135°25'0 0.0
2018-May-12 19:30N 34°35' E 135°25'0 0.0
2018-May-12 19:00N 34°35' E 135°25'0 0.0
2018-May-12 18:30N 34°35' E 135°25'0 0.0
2018-May-12 18:00N 34°35' E 135°25'0 0.0
2018-May-12 17:29N 34°35' E 135°25'0 0.0
2018-May-12 16:59N 34°35' E 135°25'0 0.0
2018-May-12 16:29N 34°35' E 135°25'0 0.0
2018-May-12 15:59N 34°35' E 135°25'0 0.0
2018-May-12 15:29N 34°35' E 135°25'0 0.0
2018-May-12 14:59N 34°35' E 135°25'0 0.0
2018-May-12 14:29N 34°35' E 135°25'0 0.0
2018-May-12 13:59N 34°35' E 135°25'0 0.0
2018-May-12 13:29N 34°35' E 135°25'0 0.0
2018-May-12 12:59N 34°35' E 135°25'0 0.0
2018-May-12 12:29N 34°35' E 135°25'0 0.0
2018-May-12 11:59N 34°35' E 135°25'3 6.1
2018-May-12 11:30N 34°36' E 135°22'510.7
2018-May-12 11:00N 34°36' E 135°16'510.6
2018-May-12 10:30N 34°36' E 135°09'510.8
2018-May-12 10:00N 34°36' E 135°03'3 6.8
2018-May-12 09:30N 34°37' E 134°59'4 8.5
2018-May-12 09:00N 34°35' E 134°54'4 8.1
2018-May-12 08:30N 34°33' E 134°49'5 9.4
2018-May-12 08:00N 34°32' E 134°44'610.0
2018-May-12 07:26N 34°29' E 134°38'510.4
2018-May-12 07:00N 34°28' E 134°33'19 0.9
2018-May-11 08:18N 34°24' E 134°09'410.7
2018-May-11 07:56N 34°24' E 134°14'510.1
2018-May-11 07:24N 34°26' E 134°21'4 9.7
2018-May-11 06:57N 34°27' E 134°26'5 9.5
2018-May-11 06:27N 34°29' E 134°31'5 9.5
2018-May-11 05:53N 34°31' E 134°37'4 9.3
2018-May-11 05:28N 34°32' E 134°41'4 9.2
2018-May-11 05:00N 34°33' E 134°46'4 8.8
2018-May-11 04:30N 34°35' E 134°51'4 8.2
2018-May-11 04:00N 34°37' E 134°56'4 8.0
2018-May-11 03:30N 34°38' E 135°00'  
Track history (hours):
 
Tides and Currents Weather Stations Pressure Air Temp Water Temp Dewpoint Dewpoint Depression Visibility Wind Speed Wind Dir Waves Ship Positions

Jinjya Maru

Last reported at 2018-May-21 03:27 UTC. Time now 2018-May-21 14:33 UTC.
Position N 34°33' E 135°21'.

Length 48 m.

Type: Tanker. MMSI: 431300336.

Date/timePositionNaut miles runAvg speedWind from/ knotsBaromVisibWave heightAir tempDewpointWater temp
2018-May-21 03:27N 34°33' E 135°21'510.4
2018-May-21 02:56N 34°34' E 135°15'410.0
2018-May-21 02:30N 34°35' E 135°09'510.5
2018-May-21 02:00N 34°36' E 135°03'9 9.5
2018-May-21 01:06N 34°34' E 134°53'110.7
2018-May-21 00:59N 34°34' E 134°51'610.4
2018-May-21 00:27N 34°32' E 134°45'610.4
2018-May-20 23:52N 34°30' E 134°38'410.5
2018-May-20 23:27N 34°28' E 134°33'3 0.1
2018-May-19 08:48N 34°28' E 134°30'9 8.6
2018-May-19 07:48N 34°31' E 134°39'15 7.8
2018-May-19 05:54N 34°37' E 134°56'5 7.3
2018-May-19 05:09N 34°37' E 135°03'2 7.1
2018-May-19 04:53N 34°37' E 135°05'4 9.4
2018-May-19 04:28N 34°37' E 135°10'5 9.8
2018-May-19 03:56N 34°37' E 135°16'4 9.4
2018-May-19 03:29N 34°36' E 135°21'4 1.4
2018-May-19 00:30N 34°34' E 135°26'1 0.2
2018-May-18 17:36N 34°35' E 135°25'0 0.0
2018-May-18 13:26N 34°35' E 135°25'14 9.4
2018-May-18 11:58N 34°27' E 135°12'612.1
2018-May-18 11:30N 34°22' E 135°08'612.6
2018-May-18 11:00N 34°17' E 135°04'911.3
2018-May-18 10:11N 34°09' E 134°58'2 9.7
2018-May-18 10:00N 34°08' E 134°57'  
2018-May-15 02:21N 34°04' E 132°25'5 9.5
2018-May-15 01:51N 34°07' E 132°21'3 9.4
2018-May-15 01:30N 34°10' E 132°18'3 1.7
2018-May-14 23:25N 34°12' E 132°15'1 2.0
2018-May-14 22:57N 34°11' E 132°14'0 0.0
2018-May-14 22:27N 34°11' E 132°14'0 0.0
2018-May-14 21:54N 34°11' E 132°14'0 0.0
2018-May-14 21:30N 34°11' E 132°14'0 0.0
2018-May-14 20:48N 34°11' E 132°14'0 0.0
2018-May-14 20:30N 34°11' E 132°14'0 0.0
2018-May-14 20:00N 34°11' E 132°14'0 0.0
2018-May-14 19:18N 34°11' E 132°14'0 0.0
2018-May-14 18:54N 34°11' E 132°14'0 0.0
2018-May-14 18:24N 34°11' E 132°14'0 0.0
2018-May-14 17:39N 34°11' E 132°14'0 0.0
2018-May-14 17:27N 34°11' E 132°14'0 0.0
2018-May-14 17:00N 34°11' E 132°14'0 0.0
2018-May-14 16:21N 34°11' E 132°14'0 0.0
2018-May-14 16:00N 34°11' E 132°14'0 0.0
2018-May-14 15:06N 34°11' E 132°14'0 0.0
2018-May-14 14:51N 34°11' E 132°14'0 0.0
2018-May-14 14:24N 34°11' E 132°14'0 0.0
2018-May-14 14:00N 34°11' E 132°14'0 0.0
2018-May-14 13:30N 34°11' E 132°14'0 0.0
2018-May-14 12:42N 34°11' E 132°14'0 0.0
2018-May-14 12:24N 34°11' E 132°14'0 0.0
2018-May-14 09:24N 34°11' E 132°14'0 0.0
2018-May-14 08:57N 34°11' E 132°14'0 0.0
2018-May-14 08:30N 34°11' E 132°14'1 1.7
2018-May-14 07:58N 34°12' E 132°15'28 4.5
2018-May-14 01:38N 33°55' E 132°42'2 9.7
2018-May-14 01:29N 33°56' E 132°43'90 4.9
2018-May-13 07:02N 34°27' E 134°26'3 9.5
2018-May-13 06:44N 34°29' E 134°29'3 9.4
2018-May-13 06:25N 34°30' E 134°33'4 9.2
2018-May-13 06:00N 34°31' E 134°37'5 9.2
2018-May-13 05:30N 34°32' E 134°42'5 8.9
2018-May-13 05:00N 34°34' E 134°47'4 8.3
2018-May-13 04:29N 34°35' E 134°52'4 7.2
2018-May-13 03:59N 34°37' E 134°56'3 6.9
2018-May-13 03:30N 34°38' E 134°60'3 5.8
2018-May-13 03:00N 34°37' E 135°03'5 9.2
2018-May-13 02:30N 34°37' E 135°09'510.0
2018-May-13 02:00N 34°37' E 135°15'5 9.8
2018-May-13 01:30N 34°37' E 135°21'4 8.3
2018-May-13 01:00N 34°35' E 135°25'0 0.7
2018-May-13 00:28N 34°34' E 135°26'0 0.0
2018-May-12 23:58N 34°34' E 135°26'0 0.0
2018-May-12 23:28N 34°34' E 135°26'0 0.0
2018-May-12 22:58N 34°34' E 135°26'1 1.1
2018-May-12 22:30N 34°35' E 135°25'0 0.6
2018-May-12 22:00N 34°35' E 135°25'0 0.0
2018-May-12 21:30N 34°35' E 135°25'0 0.0
2018-May-12 21:00N 34°35' E 135°25'0 0.1
2018-May-12 20:30N 34°35' E 135°25'0 0.0
2018-May-12 20:00N 34°35' E 135°25'0 0.0
2018-May-12 19:30N 34°35' E 135°25'0 0.0
2018-May-12 19:00N 34°35' E 135°25'0 0.0
2018-May-12 18:30N 34°35' E 135°25'0 0.0
2018-May-12 18:00N 34°35' E 135°25'0 0.0
2018-May-12 17:29N 34°35' E 135°25'0 0.0
2018-May-12 16:59N 34°35' E 135°25'0 0.0
2018-May-12 16:29N 34°35' E 135°25'0 0.0
2018-May-12 15:59N 34°35' E 135°25'0 0.0
2018-May-12 15:29N 34°35' E 135°25'0 0.0
2018-May-12 14:59N 34°35' E 135°25'0 0.0
2018-May-12 14:29N 34°35' E 135°25'0 0.0
2018-May-12 13:59N 34°35' E 135°25'0 0.0
2018-May-12 13:29N 34°35' E 135°25'0 0.0
2018-May-12 12:59N 34°35' E 135°25'0 0.0
2018-May-12 12:29N 34°35' E 135°25'0 0.0
2018-May-12 11:59N 34°35' E 135°25'3 6.1
2018-May-12 11:30N 34°36' E 135°22'510.7
2018-May-12 11:00N 34°36' E 135°16'510.6
2018-May-12 10:30N 34°36' E 135°09'510.8
2018-May-12 10:00N 34°36' E 135°03'3 6.8
2018-May-12 09:30N 34°37' E 134°59'4 8.5
2018-May-12 09:00N 34°35' E 134°54'4 8.1
2018-May-12 08:30N 34°33' E 134°49'5 9.4
2018-May-12 08:00N 34°32' E 134°44'610.0
2018-May-12 07:26N 34°29' E 134°38'510.4
2018-May-12 07:00N 34°28' E 134°33'19 0.9
2018-May-11 08:18N 34°24' E 134°09'410.7
2018-May-11 07:56N 34°24' E 134°14'510.1
2018-May-11 07:24N 34°26' E 134°21'4 9.7
2018-May-11 06:57N 34°27' E 134°26'5 9.5
2018-May-11 06:27N 34°29' E 134°31'5 9.5
2018-May-11 05:53N 34°31' E 134°37'4 9.3
2018-May-11 05:28N 34°32' E 134°41'4 9.2
2018-May-11 05:00N 34°33' E 134°46'4 8.8
2018-May-11 04:30N 34°35' E 134°51'4 8.2
2018-May-11 04:00N 34°37' E 134°56'4 8.0
2018-May-11 03:30N 34°38' E 135°00'  

Dump ship's entire track history